Weather at Nepabunna Airport

Public forecast

Using degrees Celsius for public forecast. Weather courtesy of forecast.io.

Closest aviation weather report (METAR) to Nepabunna Airport

Closest report is Leigh Creek Airport, 27.0 nm (50.0 km) W. Retrieved 2021/06/15 14:00 UTC (45 minutes ago):

YLEC 151400Z AUTO 18002KT 9999 // BKN077 BKN088 09/06 Q1013

Closest aviation forecast (TAF) to Nepabunna Airport

Closest forecast is Woomera Airfield, 114.5 nm (212.1 km) WSW. Retrieved 2021/06/15 12:00 UTC (3 hours ago):

TAF YPWR 151112Z 1512/1606 31012KT CAVOK FM160000 30018KT 9999 SCT030 FM160300 26016G29KT 9999 SCT030